createdAt,value
2017-01-27T00:00:14.813Z,30.88
2017-01-27T00:01:14.791Z,30.69
2017-01-27T00:02:14.765Z,30.88
2017-01-27T00:03:14.365Z,30.79
2017-01-27T00:04:14.742Z,30.79
2017-01-27T00:05:14.712Z,30.98
2017-01-27T00:06:14.314Z,30.79
2017-01-27T00:07:14.689Z,30.79
2017-01-27T00:08:14.660Z,30.88
2017-01-27T00:09:14.266Z,30.88
2017-01-27T00:10:14.631Z,30.87
2017-01-27T00:11:14.618Z,30.87
2017-01-27T00:12:14.202Z,30.87
2017-01-27T00:13:14.573Z,30.68
2017-01-27T00:14:14.582Z,30.6
2017-01-27T00:15:14.538Z,30.88
2017-01-27T00:16:14.527Z,30.98
2017-01-27T00:17:14.114Z,30.88
2017-01-27T00:18:14.494Z,30.79
2017-01-27T00:19:14.085Z,30.79
2017-01-27T00:20:14.459Z,31.07
2017-01-27T00:21:14.427Z,30.79
2017-01-27T00:22:14.424Z,30.79
2017-01-27T00:23:14.402Z,30.69
2017-01-27T00:24:14.384Z,30.88
2017-01-27T00:25:14.359Z,30.69
2017-01-27T00:26:14.344Z,30.69
2017-01-27T00:27:14.330Z,30.68
2017-01-27T00:28:14.306Z,31.06
2017-01-27T00:29:14.294Z,30.87
2017-01-27T00:30:13.892Z,30.77
2017-01-27T00:31:14.262Z,30.77
2017-01-27T00:32:13.853Z,30.88
2017-01-27T00:33:14.226Z,30.88
2017-01-27T00:34:14.209Z,30.88
2017-01-27T00:35:14.191Z,30.77
2017-01-27T00:36:14.161Z,30.79
2017-01-27T00:37:14.148Z,30.98
2017-01-27T00:38:13.749Z,30.98
2017-01-27T00:39:14.109Z,30.98
2017-01-27T00:40:14.107Z,31.45
2017-01-27T00:41:14.073Z,31.55
2017-01-27T00:42:14.057Z,30.98
2017-01-27T00:43:14.049Z,30.98
2017-01-27T00:44:14.032Z,31.26
2017-01-27T00:45:14.010Z,31.36
2017-01-27T00:46:13.612Z,30.98
2017-01-27T00:47:13.974Z,31.07
2017-01-27T00:48:13.962Z,31.07
2017-01-27T00:49:13.545Z,31.07
2017-01-27T00:50:13.922Z,30.88
2017-01-27T00:51:13.513Z,30.98
2017-01-27T00:52:13.502Z,31.45
2017-01-27T00:53:13.484Z,31.17
2017-01-27T00:54:13.854Z,31.17
2017-01-27T00:55:13.441Z,31.17
2017-01-27T00:56:13.819Z,31.15
2017-01-27T00:57:13.413Z,31.06
2017-01-27T00:58:13.395Z,31.25
2017-01-27T00:59:13.375Z,31.34
2017-01-27T01:00:13.735Z,31.34
2017-01-27T01:01:13.336Z,31.34
2017-01-27T01:02:13.321Z,31.15
2017-01-27T01:03:13.695Z,31.26
2017-01-27T01:04:13.665Z,31.07
2017-01-27T01:05:13.649Z,31.17
2017-01-27T01:06:13.626Z,30.98
2017-01-27T01:07:13.615Z,31.07
2017-01-27T01:08:13.605Z,31.17
2017-01-27T01:09:13.578Z,31.26
2017-01-27T01:10:13.558Z,31.07
2017-01-27T01:11:13.553Z,31.07
2017-01-27T01:12:13.142Z,31.26
2017-01-27T01:13:13.505Z,31.26
2017-01-27T01:14:13.486Z,31.15
2017-01-27T01:15:13.483Z,31.15
2017-01-27T01:16:13.459Z,31.15
2017-01-27T01:17:13.430Z,31.06
2017-01-27T01:18:13.425Z,31.06
2017-01-27T01:19:13.409Z,31.34
2017-01-27T01:20:13.381Z,31.34
2017-01-27T01:21:13.372Z,31.25
2017-01-27T01:22:13.354Z,31.53
2017-01-27T01:23:13.328Z,31.53
2017-01-27T01:24:13.310Z,31.44
2017-01-27T01:25:13.287Z,31.63
2017-01-27T01:26:13.275Z,31.53
2017-01-27T01:27:13.259Z,31.53
2017-01-27T01:28:13.237Z,31.72
2017-01-27T01:29:13.221Z,31.81
2017-01-27T01:30:13.202Z,31.53
2017-01-27T01:31:13.192Z,31.63
2017-01-27T01:32:13.163Z,31.63
2017-01-27T01:33:13.158Z,31.53
2017-01-27T01:34:13.138Z,31.53
2017-01-27T01:35:13.113Z,31.63
2017-01-27T01:36:13.093Z,31.72
2017-01-27T01:37:13.074Z,31.63
2017-01-27T01:38:13.055Z,31.72
2017-01-27T01:39:13.048Z,31.72
2017-01-27T01:40:13.023Z,31.81
2017-01-27T01:41:13.007Z,31.81
2017-01-27T01:42:12.995Z,31.72
2017-01-27T01:43:12.976Z,31.81
2017-01-27T01:44:12.963Z,31.63
2017-01-27T01:45:12.930Z,31.81
2017-01-27T01:46:12.923Z,31.74
2017-01-27T01:47:12.911Z,31.64
2017-01-27T01:48:12.893Z,31.83
2017-01-27T01:49:12.861Z,31.81
2017-01-27T01:50:12.845Z,31.81
2017-01-27T01:51:12.835Z,31.72
2017-01-27T01:52:12.820Z,31.83
2017-01-27T01:53:12.800Z,31.74
2017-01-27T01:54:12.787Z,31.64
2017-01-27T01:55:12.758Z,31.74
2017-01-27T01:56:12.739Z,31.83
2017-01-27T01:57:12.735Z,31.81
2017-01-27T01:58:12.718Z,31.72
2017-01-27T01:59:12.687Z,31.81
2017-01-27T02:00:12.680Z,31.81
2017-01-27T02:01:12.663Z,31.72
2017-01-27T02:02:12.643Z,31.72
2017-01-27T02:03:12.627Z,31.72
2017-01-27T02:04:12.609Z,31.72
2017-01-27T02:05:12.587Z,31.74
2017-01-27T02:06:12.576Z,31.91
2017-01-27T02:07:12.554Z,31.74
2017-01-27T02:08:12.546Z,31.83
2017-01-27T02:09:12.524Z,31.93
2017-01-27T02:10:12.508Z,32.12
2017-01-27T02:11:12.475Z,32.02
2017-01-27T02:12:12.462Z,32.02
2017-01-27T02:13:12.453Z,31.74
2017-01-27T02:14:12.423Z,31.83
2017-01-27T02:15:12.417Z,31.74
2017-01-27T02:16:12.404Z,31.74
2017-01-27T02:17:12.380Z,31.74
2017-01-27T02:18:12.356Z,31.83
2017-01-27T02:19:12.334Z,31.83
2017-01-27T02:20:12.331Z,31.74
2017-01-27T02:21:12.312Z,31.64
2017-01-27T02:22:12.287Z,31.83
2017-01-27T02:23:12.268Z,31.74
2017-01-27T02:24:12.250Z,31.64
2017-01-27T02:25:11.850Z,31.74
2017-01-27T02:26:12.224Z,31.83
2017-01-27T02:27:12.211Z,31.74
2017-01-27T02:28:12.182Z,31.83
2017-01-27T02:29:12.166Z,31.74
2017-01-27T02:30:12.149Z,31.74
2017-01-27T02:31:12.140Z,31.74
2017-01-27T02:32:12.126Z,31.83
2017-01-27T02:33:12.097Z,31.83
2017-01-27T02:34:12.080Z,31.64
2017-01-27T02:35:12.061Z,31.64
2017-01-27T02:36:12.043Z,31.74
2017-01-27T02:37:12.030Z,31.64
2017-01-27T02:38:12.018Z,31.74
2017-01-27T02:39:11.989Z,31.64
2017-01-27T02:40:11.597Z,31.74
2017-01-27T02:41:11.990Z,31.45
2017-01-27T02:42:11.557Z,31.55
2017-01-27T02:43:11.925Z,31.45
2017-01-27T02:44:11.912Z,31.64
2017-01-27T02:45:11.889Z,31.74
2017-01-27T02:46:11.486Z,31.64
2017-01-27T02:47:11.851Z,31.55
2017-01-27T02:48:11.452Z,31.64
2017-01-27T02:49:11.439Z,31.74
2017-01-27T02:50:11.809Z,31.74
2017-01-27T02:51:11.790Z,31.74
2017-01-27T02:52:11.377Z,31.83
2017-01-27T02:53:11.746Z,31.64
2017-01-27T02:54:11.733Z,31.74
2017-01-27T02:55:11.724Z,31.64
2017-01-27T02:56:11.700Z,31.74
2017-01-27T02:57:11.681Z,31.64
2017-01-27T02:58:11.668Z,31.64
2017-01-27T02:59:11.648Z,31.64
2017-01-27T03:00:11.634Z,31.64
2017-01-27T03:01:11.231Z,31.55
2017-01-27T03:02:11.216Z,31.83
2017-01-27T03:03:11.588Z,31.74
2017-01-27T03:04:11.568Z,31.74
2017-01-27T03:05:11.546Z,31.74
2017-01-27T03:06:11.527Z,31.74
2017-01-27T03:07:11.515Z,31.74
2017-01-27T03:08:11.108Z,31.64
2017-01-27T03:09:11.471Z,31.55
2017-01-27T03:10:11.079Z,31.64
2017-01-27T03:11:11.450Z,31.74
2017-01-27T03:12:11.423Z,31.74
2017-01-27T03:13:11.414Z,31.64
2017-01-27T03:14:11.387Z,31.83
2017-01-27T03:15:11.380Z,31.74
2017-01-27T03:16:11.362Z,31.64
2017-01-27T03:17:11.339Z,31.64
2017-01-27T03:18:11.317Z,31.74
2017-01-27T03:19:11.301Z,31.64
2017-01-27T03:20:11.293Z,31.64
2017-01-27T03:21:11.274Z,31.55
2017-01-27T03:22:10.872Z,31.74
2017-01-27T03:23:11.230Z,31.74
2017-01-27T03:24:11.225Z,31.64
2017-01-27T03:25:11.195Z,31.45
2017-01-27T03:26:11.182Z,31.83
2017-01-27T03:27:11.164Z,31.55
2017-01-27T03:28:11.146Z,31.55
2017-01-27T03:29:11.127Z,31.64
2017-01-27T03:30:10.723Z,31.64
2017-01-27T03:31:11.102Z,31.55
2017-01-27T03:32:11.087Z,31.55
2017-01-27T03:33:11.072Z,31.36
2017-01-27T03:34:10.660Z,31.64
2017-01-27T03:35:11.025Z,31.36
2017-01-27T03:36:11.017Z,31.26
2017-01-27T03:37:10.991Z,31.36
2017-01-27T03:38:10.594Z,31.36
2017-01-27T03:39:10.955Z,31.45
2017-01-27T03:40:10.949Z,31.45
2017-01-27T03:41:10.937Z,31.36
2017-01-27T03:42:10.907Z,31.36
2017-01-27T03:43:10.886Z,31.36
2017-01-27T03:44:10.872Z,31.36
2017-01-27T03:45:10.855Z,31.64
2017-01-27T03:46:10.844Z,31.55
2017-01-27T03:47:10.820Z,31.45
2017-01-27T03:48:10.801Z,31.36
2017-01-27T03:49:10.782Z,31.36
2017-01-27T03:50:10.777Z,31.36
2017-01-27T03:51:10.761Z,31.36
2017-01-27T03:52:10.741Z,31.36
2017-01-27T03:53:10.715Z,31.36
2017-01-27T03:54:10.695Z,31.55
2017-01-27T03:55:10.679Z,31.36
2017-01-27T03:56:10.678Z,31.26
2017-01-27T03:57:10.663Z,31.36
2017-01-27T03:58:10.628Z,31.45
2017-01-27T03:59:10.609Z,31.07
2017-01-27T04:00:10.596Z,31.26
2017-01-27T04:01:10.584Z,31.17
2017-01-27T04:02:10.560Z,31.26
2017-01-27T04:03:10.554Z,31.17
2017-01-27T04:04:10.149Z,31.36
2017-01-27T04:05:10.507Z,31.17
2017-01-27T04:06:10.492Z,31.07
2017-01-27T04:07:10.479Z,31.07
2017-01-27T04:08:10.472Z,30.98
2017-01-27T04:09:10.452Z,30.88
2017-01-27T04:10:10.436Z,30.88
2017-01-27T04:11:10.418Z,30.88
2017-01-27T04:12:10.388Z,30.98
2017-01-27T04:13:10.374Z,30.88
2017-01-27T04:14:10.365Z,30.98
2017-01-27T04:15:10.350Z,30.88
2017-01-27T04:16:10.334Z,30.88
2017-01-27T04:17:10.308Z,30.88
2017-01-27T04:18:10.301Z,30.88
2017-01-27T04:19:10.279Z,30.88
2017-01-27T04:20:10.251Z,30.88
2017-01-27T04:21:10.249Z,31.07
2017-01-27T04:22:10.229Z,30.79
2017-01-27T04:23:10.212Z,30.88
2017-01-27T04:24:10.188Z,30.79
2017-01-27T04:25:10.179Z,30.69
2017-01-27T04:26:10.152Z,30.69
2017-01-27T04:27:10.133Z,30.79
2017-01-27T04:28:10.154Z,30.88
2017-01-27T04:29:10.102Z,30.69
2017-01-27T04:30:10.096Z,30.79
2017-01-27T04:31:10.065Z,30.79
2017-01-27T04:32:10.058Z,30.69
2017-01-27T04:33:10.035Z,30.79
2017-01-27T04:34:10.024Z,30.88
2017-01-27T04:35:10.012Z,30.98
2017-01-27T04:36:09.997Z,30.98
2017-01-27T04:37:09.973Z,30.88
2017-01-27T04:38:09.565Z,30.88
2017-01-27T04:39:09.940Z,30.88
2017-01-27T04:40:09.536Z,30.98
2017-01-27T04:41:09.891Z,30.69
2017-01-27T04:42:09.490Z,30.98
2017-01-27T04:43:09.870Z,30.98
2017-01-27T04:44:09.848Z,30.88
2017-01-27T04:45:09.826Z,30.98
2017-01-27T04:46:09.809Z,30.79
2017-01-27T04:47:09.796Z,30.88
2017-01-27T04:48:09.773Z,30.79
2017-01-27T04:49:09.763Z,30.79
2017-01-27T04:50:09.737Z,30.79
2017-01-27T04:51:09.720Z,30.69
2017-01-27T04:52:09.702Z,31.07
2017-01-27T04:53:09.692Z,31.07
2017-01-27T04:54:09.280Z,31.07
2017-01-27T04:55:09.658Z,30.79
2017-01-27T04:56:09.642Z,30.79
2017-01-27T04:57:09.613Z,30.79
2017-01-27T04:58:09.214Z,30.69
2017-01-27T04:59:09.575Z,30.79
2017-01-27T05:00:09.556Z,30.69
2017-01-27T05:01:09.554Z,30.69
2017-01-27T05:02:09.533Z,30.79
2017-01-27T05:03:09.519Z,30.79
2017-01-27T05:04:09.498Z,30.79
2017-01-27T05:05:09.495Z,30.79
2017-01-27T05:06:09.452Z,30.79
2017-01-27T05:07:09.477Z,30.79
2017-01-27T05:08:09.421Z,30.88
2017-01-27T05:09:09.401Z,30.88
2017-01-27T05:10:09.395Z,30.88
2017-01-27T05:11:09.379Z,30.88
2017-01-27T05:12:09.350Z,30.88
2017-01-27T05:13:09.339Z,30.69
2017-01-27T05:14:09.325Z,30.79
2017-01-27T05:15:09.331Z,30.69
2017-01-27T05:16:09.285Z,30.6
2017-01-27T05:17:09.274Z,30.88
2017-01-27T05:18:09.249Z,30.69
2017-01-27T05:19:09.231Z,30.51
2017-01-27T05:20:08.833Z,30.69
2017-01-27T05:21:09.201Z,30.6
2017-01-27T05:22:09.179Z,30.6
2017-01-27T05:23:09.162Z,30.69
2017-01-27T05:24:09.145Z,30.69
2017-01-27T05:25:09.136Z,30.6
2017-01-27T05:26:09.117Z,30.69
2017-01-27T05:27:09.100Z,30.79
2017-01-27T05:28:09.086Z,30.69
2017-01-27T05:29:09.061Z,30.51
2017-01-27T05:30:09.042Z,30.69
2017-01-27T05:31:09.031Z,30.6
2017-01-27T05:32:09.018Z,30.68
2017-01-27T05:33:08.995Z,30.51
2017-01-27T05:34:08.982Z,30.79
2017-01-27T05:35:08.961Z,30.49
2017-01-27T05:36:08.936Z,30.49
2017-01-27T05:37:08.928Z,30.68
2017-01-27T05:38:08.912Z,30.49
2017-01-27T05:39:08.886Z,30.68
2017-01-27T05:40:08.877Z,30.68
2017-01-27T05:41:08.848Z,30.96
2017-01-27T05:42:08.834Z,30.88
2017-01-27T05:43:08.818Z,30.88
2017-01-27T05:44:08.810Z,30.79
2017-01-27T05:45:08.403Z,30.88
2017-01-27T05:46:08.774Z,30.79
2017-01-27T05:47:08.743Z,30.79
2017-01-27T05:48:08.739Z,30.79
2017-01-27T05:49:08.717Z,30.88
2017-01-27T05:50:08.688Z,30.88
2017-01-27T05:51:08.686Z,30.79
2017-01-27T05:52:08.655Z,30.69
2017-01-27T05:53:08.649Z,30.79
2017-01-27T05:54:08.238Z,30.79
2017-01-27T05:55:08.613Z,30.69
2017-01-27T05:56:08.597Z,30.69
2017-01-27T05:57:08.584Z,30.79
2017-01-27T05:58:08.172Z,30.69
2017-01-27T05:59:08.547Z,30.68
2017-01-27T06:00:08.524Z,30.77
2017-01-27T06:01:08.499Z,30.68
2017-01-27T06:02:08.094Z,30.77
2017-01-27T06:03:08.464Z,30.79
2017-01-27T06:04:08.471Z,30.98
2017-01-27T06:05:08.433Z,30.79
2017-01-27T06:06:08.414Z,30.79
2017-01-27T06:07:08.394Z,30.79
2017-01-27T06:08:08.373Z,30.68
2017-01-27T06:09:08.369Z,30.79
2017-01-27T06:10:08.352Z,30.77
2017-01-27T06:11:08.322Z,30.77
2017-01-27T06:12:08.303Z,30.77
2017-01-27T06:13:08.295Z,30.68
2017-01-27T06:14:08.273Z,30.87
2017-01-27T06:15:08.252Z,30.77
2017-01-27T06:16:08.246Z,31.06
2017-01-27T06:17:08.220Z,30.77
2017-01-27T06:18:08.213Z,30.88
2017-01-27T06:19:08.181Z,30.98
2017-01-27T06:20:08.175Z,30.79
2017-01-27T06:21:08.156Z,30.98
2017-01-27T06:22:08.146Z,30.87
2017-01-27T06:23:08.111Z,30.77
2017-01-27T06:24:08.094Z,30.88
2017-01-27T06:25:08.091Z,30.79
2017-01-27T06:26:08.065Z,31.07
2017-01-27T06:27:08.043Z,31.07
2017-01-27T06:28:08.023Z,31.17
2017-01-27T06:29:08.017Z,30.79
2017-01-27T06:30:07.601Z,31.07
2017-01-27T06:31:07.594Z,30.69
2017-01-27T06:32:07.955Z,30.69
2017-01-27T06:33:07.934Z,30.79
2017-01-27T06:34:07.919Z,30.79
2017-01-27T06:35:07.910Z,30.79
2017-01-27T06:36:07.880Z,30.79
2017-01-27T06:37:07.877Z,30.88
2017-01-27T06:38:07.843Z,30.79
2017-01-27T06:39:07.830Z,30.79
2017-01-27T06:40:07.434Z,30.88
2017-01-27T06:41:07.430Z,30.98
2017-01-27T06:42:07.782Z,30.98
2017-01-27T06:43:07.370Z,30.98
2017-01-27T06:44:07.744Z,30.69
2017-01-27T06:45:07.337Z,30.69
2017-01-27T06:46:07.718Z,30.98
2017-01-27T06:47:07.688Z,30.98
2017-01-27T06:48:07.669Z,30.69
2017-01-27T06:49:07.269Z,30.69
2017-01-27T06:50:07.643Z,30.88
2017-01-27T06:51:07.628Z,30.98
2017-01-27T06:52:07.594Z,30.88
2017-01-27T06:53:07.588Z,30.88
2017-01-27T06:54:07.571Z,30.69
2017-01-27T06:55:07.558Z,30.69
2017-01-27T06:56:07.534Z,30.98
2017-01-27T06:57:07.129Z,30.88
2017-01-27T06:58:07.114Z,30.88
2017-01-27T06:59:07.475Z,30.88
2017-01-27T07:00:07.468Z,31.07
2017-01-27T07:01:07.446Z,31.09
2017-01-27T07:02:07.047Z,31.18
2017-01-27T07:03:07.404Z,31.28
2017-01-27T07:04:07.385Z,31.28
2017-01-27T07:05:07.373Z,31.28
2017-01-27T07:06:07.356Z,31.37
2017-01-27T07:07:07.354Z,31.2
2017-01-27T07:08:07.320Z,31.18
2017-01-27T07:09:07.316Z,31.2
2017-01-27T07:10:07.286Z,31.37
2017-01-27T07:11:07.281Z,31.39
2017-01-27T07:12:07.260Z,31.56
2017-01-27T07:13:06.859Z,31.37
2017-01-27T07:14:06.839Z,31.48
2017-01-27T07:15:07.203Z,31.1
2017-01-27T07:16:07.188Z,31.58
2017-01-27T07:17:07.177Z,31.5
2017-01-27T07:18:07.168Z,31.22
2017-01-27T07:19:07.135Z,31.1
2017-01-27T07:20:07.132Z,31.41
2017-01-27T07:21:07.105Z,31.5
2017-01-27T07:22:07.111Z,31.41
2017-01-27T07:23:07.070Z,31.6
2017-01-27T07:24:07.063Z,31.41
2017-01-27T07:25:07.041Z,31.5
2017-01-27T07:26:06.646Z,31.52
2017-01-27T07:27:07.017Z,31.52
2017-01-27T07:28:07.003Z,31.61
2017-01-27T07:29:06.979Z,31.52
2017-01-27T07:30:06.969Z,31.8
2017-01-27T07:31:06.945Z,31.72
2017-01-27T07:32:06.937Z,31.72
2017-01-27T07:33:06.924Z,31.72
2017-01-27T07:34:06.914Z,31.72
2017-01-27T07:35:06.883Z,31.82
2017-01-27T07:36:06.882Z,32.02
2017-01-27T07:37:06.484Z,32.21
2017-01-27T07:38:06.854Z,32.14
2017-01-27T07:39:06.827Z,32.14
2017-01-27T07:40:06.818Z,32.32
2017-01-27T07:41:06.811Z,32.43
2017-01-27T07:42:06.781Z,32.06
2017-01-27T07:43:06.765Z,32.14
2017-01-27T07:44:06.773Z,31.95
2017-01-27T07:45:06.755Z,32.23
2017-01-27T07:46:06.729Z,31.95
2017-01-27T07:47:06.725Z,31.95
2017-01-27T07:48:06.704Z,32.23
2017-01-27T07:49:06.688Z,32.14
2017-01-27T07:50:06.673Z,32.06
2017-01-27T07:51:06.671Z,32.15
2017-01-27T07:52:06.655Z,32.24
2017-01-27T07:53:06.636Z,31.96
2017-01-27T07:54:06.637Z,31.96
2017-01-27T07:55:06.625Z,32.15
2017-01-27T07:56:06.603Z,31.87
2017-01-27T07:57:06.600Z,32.15
2017-01-27T07:58:06.572Z,32.17
2017-01-27T07:59:06.567Z,32.17
2017-01-27T08:00:06.567Z,32.35
2017-01-27T08:01:06.541Z,32.17
2017-01-27T08:02:06.519Z,32.17
2017-01-27T08:03:06.513Z,32.26
2017-01-27T08:04:06.493Z,32.46
2017-01-27T08:05:06.480Z,32.37
2017-01-27T08:06:06.469Z,32.18
2017-01-27T08:07:06.460Z,32.26
2017-01-27T08:08:06.448Z,32.17
2017-01-27T08:09:06.431Z,32.37
2017-01-27T08:10:06.428Z,32.37
2017-01-27T08:11:06.418Z,32.09
2017-01-27T08:12:06.399Z,32.37
2017-01-27T08:13:06.390Z,32.18
2017-01-27T08:14:06.381Z,32.01
2017-01-27T08:15:06.370Z,32.2
2017-01-27T08:16:06.352Z,31.9
2017-01-27T08:17:06.354Z,31.71
2017-01-27T08:18:06.337Z,31.96
2017-01-27T08:19:06.317Z,31.68
2017-01-27T08:20:06.308Z,31.68
2017-01-27T08:21:06.293Z,31.79
2017-01-27T08:22:06.297Z,31.88
2017-01-27T08:23:06.290Z,32.18
2017-01-27T08:24:06.290Z,32.48
2017-01-27T08:25:06.251Z,32.57
2017-01-27T08:26:06.252Z,32.31
2017-01-27T08:27:06.230Z,32.51
2017-01-27T08:28:06.228Z,32.59
2017-01-27T08:29:06.221Z,32.5
2017-01-27T08:30:06.208Z,32.23
2017-01-27T08:31:06.187Z,32.03
2017-01-27T08:32:06.191Z,32.01
2017-01-27T08:33:06.167Z,31.23
2017-01-27T08:34:06.164Z,31.02
2017-01-27T08:35:06.159Z,31.2
2017-01-27T08:36:06.138Z,31.01
2017-01-27T08:37:06.137Z,31.01
2017-01-27T08:38:06.125Z,31.6
2017-01-27T08:39:06.106Z,31.9
2017-01-27T08:40:06.106Z,32.01
2017-01-27T08:41:06.086Z,31.82
2017-01-27T08:42:06.071Z,31.82
2017-01-27T08:43:06.073Z,31.93
2017-01-27T08:44:06.065Z,31.93
2017-01-27T08:45:05.667Z,31.64
2017-01-27T08:46:06.046Z,31.44
2017-01-27T08:47:06.035Z,31.42
2017-01-27T08:48:06.008Z,31.33
2017-01-27T08:49:06.012Z,31.52
2017-01-27T08:50:05.989Z,31.52
2017-01-27T08:51:05.991Z,30.94
2017-01-27T08:52:05.967Z,31.13
2017-01-27T08:53:05.958Z,31.42
2017-01-27T08:54:05.955Z,31.52
2017-01-27T08:55:05.945Z,31.72
2017-01-27T08:56:05.936Z,31.93
2017-01-27T08:57:05.916Z,31.74
2017-01-27T08:58:05.907Z,31.95
2017-01-27T08:59:05.904Z,32.34
2017-01-27T09:00:05.502Z,32.45
2017-01-27T09:01:05.872Z,32.35
2017-01-27T09:02:05.874Z,32.47
2017-01-27T09:03:05.855Z,32.09
2017-01-27T09:04:05.840Z,32.17
2017-01-27T09:05:05.836Z,31.96
2017-01-27T09:06:05.822Z,31.95
2017-01-27T09:07:05.810Z,32.04
2017-01-27T09:08:05.811Z,32.15
2017-01-27T09:09:05.786Z,32.15
2017-01-27T09:10:05.408Z,32.24
2017-01-27T09:11:05.393Z,32.17
2017-01-27T09:12:05.378Z,32.55
2017-01-27T09:13:05.753Z,32.47
2017-01-27T09:14:05.750Z,32.47
2017-01-27T09:15:05.733Z,32.28
2017-01-27T09:16:05.723Z,32.56
2017-01-27T09:17:05.328Z,32.47
2017-01-27T09:18:05.319Z,32.66
2017-01-27T09:19:05.692Z,32.66
2017-01-27T09:20:05.699Z,32.77
2017-01-27T09:21:05.673Z,32.58
2017-01-27T09:22:05.676Z,32.48
2017-01-27T09:23:05.670Z,32.79
2017-01-27T09:24:05.660Z,32.58
2017-01-27T09:25:05.654Z,32.48
2017-01-27T09:26:05.638Z,32.48
2017-01-27T09:27:05.634Z,32.18
2017-01-27T09:28:05.613Z,32.37
2017-01-27T09:29:05.605Z,32.47
2017-01-27T09:30:05.272Z,32.48
2017-01-27T09:31:05.589Z,32.48
2017-01-27T09:32:05.610Z,32.69
2017-01-27T09:33:05.577Z,32.6
2017-01-27T09:34:05.566Z,32.69
2017-01-27T09:35:05.559Z,32.4
2017-01-27T09:36:05.161Z,32.5
2017-01-27T09:37:05.542Z,32.32
2017-01-27T09:38:05.534Z,32.52
2017-01-27T09:39:05.525Z,32.63
2017-01-27T09:40:05.511Z,32.53
2017-01-27T09:41:05.518Z,32.73
2017-01-27T09:42:05.501Z,32.55
2017-01-27T09:43:05.495Z,32.53
2017-01-27T09:44:05.486Z,32.55
2017-01-27T09:45:05.488Z,32.74
2017-01-27T09:46:05.482Z,32.93
2017-01-27T09:47:05.461Z,32.65
2017-01-27T09:48:05.456Z,32.65
2017-01-27T09:49:05.453Z,32.55
2017-01-27T09:50:05.061Z,32.34
2017-01-27T09:51:05.442Z,32.34
2017-01-27T09:52:05.431Z,32.44
2017-01-27T09:53:05.431Z,32.53
2017-01-27T09:54:05.425Z,32.42
2017-01-27T09:55:05.405Z,32.61
2017-01-27T09:56:05.400Z,32.5
2017-01-27T09:57:05.393Z,32.58
2017-01-27T09:58:05.387Z,32.77
2017-01-27T09:59:05.387Z,32.69
2017-01-27T10:00:05.383Z,32.12
2017-01-27T10:01:05.373Z,32.5
2017-01-27T10:02:05.367Z,32.61
2017-01-27T10:03:05.348Z,32.42
2017-01-27T10:04:05.350Z,32.53
2017-01-27T10:05:05.335Z,32.65
2017-01-27T10:06:05.341Z,32.55
2017-01-27T10:07:05.324Z,32.55
2017-01-27T10:08:05.314Z,32.73
2017-01-27T10:09:05.310Z,32.53
2017-01-27T10:10:05.299Z,32.32
2017-01-27T10:11:05.307Z,32.31
2017-01-27T10:12:05.286Z,32.5
2017-01-27T10:13:05.292Z,32.4
2017-01-27T10:14:05.288Z,32.5
2017-01-27T10:15:05.275Z,32.5
2017-01-27T10:16:04.874Z,32.4
2017-01-27T10:17:04.873Z,32.5
2017-01-27T10:18:05.255Z,32.4
2017-01-27T10:19:05.247Z,32.31
2017-01-27T10:20:05.248Z,32.31
2017-01-27T10:21:05.227Z,32.4
2017-01-27T10:22:05.219Z,32.4
2017-01-27T10:23:05.212Z,32.12
2017-01-27T10:24:05.199Z,32.21
2017-01-27T10:25:04.811Z,32.12
2017-01-27T10:26:05.206Z,32.03
2017-01-27T10:27:05.184Z,32.03
2017-01-27T10:28:05.183Z,32.03
2017-01-27T10:29:05.164Z,32.01
2017-01-27T10:30:05.168Z,32.01
2017-01-27T10:31:05.155Z,32.01
2017-01-27T10:32:05.150Z,32.01
2017-01-27T10:33:05.147Z,32.1
2017-01-27T10:34:05.138Z,31.84
2017-01-27T10:35:05.121Z,32.01
2017-01-27T10:36:05.125Z,31.71
2017-01-27T10:37:05.105Z,31.6
2017-01-27T10:38:04.713Z,31.09
2017-01-27T10:39:05.088Z,31.37
2017-01-27T10:40:05.088Z,31.76
2017-01-27T10:41:04.689Z,31.88
2017-01-27T10:42:05.072Z,31.8
2017-01-27T10:43:05.072Z,31.5
2017-01-27T10:44:05.060Z,31.1
2017-01-27T10:45:05.048Z,31.29
2017-01-27T10:46:04.653Z,31.28
2017-01-27T10:47:04.634Z,30.99
2017-01-27T10:48:05.016Z,31.29
2017-01-27T10:49:05.004Z,30.88
2017-01-27T10:50:04.993Z,31.07
2017-01-27T10:51:04.997Z,30.49
2017-01-27T10:52:04.600Z,30.68
2017-01-27T10:53:05.192Z,30.58
2017-01-27T10:54:04.959Z,30.58
2017-01-27T10:55:04.967Z,30.87
2017-01-27T10:56:04.936Z,30.88
2017-01-27T10:57:04.930Z,30.88
2017-01-27T10:58:04.928Z,30.88
2017-01-27T10:59:04.907Z,30.9
2017-01-27T11:00:04.912Z,30.9
2017-01-27T11:01:04.891Z,30.99
2017-01-27T11:02:04.888Z,30.8
2017-01-27T11:03:04.881Z,30.9
2017-01-27T11:04:04.868Z,30.8
2017-01-27T11:05:04.857Z,31.01
2017-01-27T11:06:05.040Z,30.9
2017-01-27T11:07:04.838Z,30.52
2017-01-27T11:08:04.838Z,30.69
2017-01-27T11:09:04.817Z,30.6
2017-01-27T11:10:04.799Z,30.8
2017-01-27T11:11:04.797Z,30.9
2017-01-27T11:12:04.777Z,31.01
2017-01-27T11:13:04.767Z,31.2
2017-01-27T11:14:04.758Z,31.21
2017-01-27T11:15:04.757Z,30.82
2017-01-27T11:16:04.750Z,30.52
2017-01-27T11:17:04.729Z,30.88
2017-01-27T11:18:04.726Z,30.71
2017-01-27T11:19:04.714Z,30.9
2017-01-27T11:20:04.707Z,30.9
2017-01-27T11:21:04.687Z,30.6
2017-01-27T11:22:04.679Z,30.49
2017-01-27T11:23:04.676Z,30.76
2017-01-27T11:24:04.667Z,30.58
2017-01-27T11:25:04.657Z,30.01
2017-01-27T11:26:04.647Z,29.87
2017-01-27T11:27:04.625Z,29.65
2017-01-27T11:28:04.620Z,29.65
2017-01-27T11:29:04.605Z,29.54
2017-01-27T11:30:04.594Z,29.45
2017-01-27T11:31:04.801Z,29.62
2017-01-27T11:32:04.567Z,29.64
2017-01-27T11:33:04.559Z,29.64
2017-01-27T11:34:04.556Z,29.75
2017-01-27T11:35:04.540Z,30.22
2017-01-27T11:36:04.137Z,29.95
2017-01-27T11:37:04.726Z,30.13
2017-01-27T11:38:04.517Z,29.65
2017-01-27T11:39:04.475Z,29.92
2017-01-27T11:40:04.467Z,29.92
2017-01-27T11:41:04.463Z,29.83
2017-01-27T11:42:04.441Z,29.94
2017-01-27T11:43:04.436Z,30.14
2017-01-27T11:44:04.408Z,30.25
2017-01-27T11:45:04.410Z,30.16
2017-01-27T11:46:04.003Z,30.17
2017-01-27T11:47:04.379Z,30.13
2017-01-27T11:48:04.573Z,30.22
2017-01-27T11:49:04.562Z,30.33
2017-01-27T11:50:04.332Z,30.16
2017-01-27T11:51:04.328Z,30.54
2017-01-27T11:52:04.320Z,30.25
2017-01-27T11:53:04.298Z,30.24
2017-01-27T11:54:04.283Z,30.54
2017-01-27T11:55:04.282Z,30.54
2017-01-27T11:56:04.271Z,30.85
2017-01-27T11:57:03.859Z,30.77
2017-01-27T11:58:03.851Z,31.07
2017-01-27T11:59:04.235Z,30.77
2017-01-27T12:00:04.224Z,30.55
2017-01-27T12:01:04.206Z,30.83
2017-01-27T12:02:04.190Z,30.76
2017-01-27T12:03:04.195Z,30.87
2017-01-27T12:04:04.161Z,30.68
2017-01-27T12:05:04.151Z,31.05
2017-01-27T12:06:04.144Z,31.15
2017-01-27T12:07:04.337Z,30.77
2017-01-27T12:08:04.124Z,30.74
2017-01-27T12:09:04.111Z,30.54
2017-01-27T12:10:04.093Z,30.44
2017-01-27T12:11:04.090Z,30.46
2017-01-27T12:12:04.066Z,30.36
2017-01-27T12:13:04.275Z,30.35
2017-01-27T12:14:03.660Z,30.65
2017-01-27T12:15:03.649Z,30.74
2017-01-27T12:16:04.032Z,30.35
2017-01-27T12:17:04.016Z,30.17
2017-01-27T12:18:04.005Z,30.16
2017-01-27T12:19:03.988Z,30.16
2017-01-27T12:20:03.971Z,29.97
2017-01-27T12:21:03.958Z,30.52
2017-01-27T12:22:03.957Z,29.87
2017-01-27T12:23:03.930Z,30.05
2017-01-27T12:24:03.930Z,30.24
2017-01-27T12:25:03.920Z,30.25
2017-01-27T12:26:03.896Z,30.24
2017-01-27T12:27:03.886Z,30.16
2017-01-27T12:28:03.872Z,30.05
2017-01-27T12:29:03.873Z,30.24
2017-01-27T12:30:03.857Z,30.06
2017-01-27T12:31:03.840Z,29.67
2017-01-27T12:32:03.825Z,29.64
2017-01-27T12:33:03.826Z,29.92
2017-01-27T12:34:03.815Z,29.92
2017-01-27T12:35:03.797Z,29.92
2017-01-27T12:36:03.782Z,30.24
2017-01-27T12:37:03.761Z,30.14
2017-01-27T12:38:03.764Z,30.05
2017-01-27T12:39:03.356Z,30.03
2017-01-27T12:40:03.728Z,29.95
2017-01-27T12:41:03.717Z,30.05
2017-01-27T12:42:03.702Z,30.24
2017-01-27T12:43:03.699Z,30.54
2017-01-27T12:44:03.674Z,30.63
2017-01-27T12:45:03.675Z,30.55
2017-01-27T12:46:03.655Z,30.35
2017-01-27T12:47:03.643Z,30.63
2017-01-27T12:48:03.634Z,30.74
2017-01-27T12:49:03.820Z,30.76
2017-01-27T12:50:03.819Z,30.57
2017-01-27T12:51:03.636Z,30.17
2017-01-27T12:52:03.577Z,29.94
2017-01-27T12:53:03.564Z,30.21
2017-01-27T12:54:03.550Z,30.11